• Join FlightAware (Why Join?)
  • Login
  • US Flag 
11:48PM EST


 

Airport Tracker/Info


-or-


 

Live Flight TrackerFlight Track Log ✈ RPA3869 ✈ 24-May-2013 ✈ KEWR - KALB

Flight Track Log - Related Links

Times and Time Zones

All times are in EDT time to prevent confusion due to time zone crossing. See the RPA3869 flight status page for this flight to view local times or setup timezone preferences in your user account.

Time Position Orientation Groundspeed Altitude Reporting Facility
EDT Latitude Longitude Course Direction KTS MPH feet Rate Location/Type
08:17PM 40.7000 -74.1667 37° Northeast 150 173 600  Level New York TRACON
08:18PM 40.7333 -74.1167 49° Northeast 194 223 3,000 2,280 Climbing New York TRACON
08:19PM 40.7667 -74.1000 21° North 200 230 5,200 1,380 Climbing New York TRACON
08:20PM 41.1016 -74.1333 North  Level FlightAware Approximate
08:20PM 40.8333 -74.1333 339° North 254 292 6,000  Level New York TRACON
08:21PM 41.1661 -74.0609 74° East  Level FlightAware Approximate
08:21PM 40.9000 -74.1667 339° North 257 296 6,000  Level New York TRACON
08:22PM 41.1988 -73.9346 37° Northeast  Level FlightAware Approximate
08:22PM 40.9667 -74.2000 339° North 264 304 6,000  Level New York TRACON
08:23PM 41.0333 -74.1667 21° North 257 296 6,000  Level New York TRACON
08:24PM 41.1000 -74.1500 11° North 265 305 6,000 1,260 Level New York TRACON
08:26PM 41.1958 -73.9794 53° Northeast 243 280 10,500 1,740 Climbing Boston Center
08:27PM 41.2136 -73.8861 76° East 272 313 12,100 1,200 Climbing Boston Center
08:28PM 41.2400 -73.7678 73° East 293 337 13,000 420 Climbing Boston Center
08:29PM 41.2828 -73.6803 57° Northeast 308 354 13,000  Level Boston Center
08:30PM 41.3808 -73.6575 10° North 284 327 13,000  Level Boston Center
08:31PM 41.4750 -73.6453 North 326 375 13,000  Level Boston Center
08:32PM 41.5647 -73.6275 North 334 384 13,000  Level Boston Center
08:33PM 41.6586 -73.6100 North 334 384 13,000  Level Boston Center
08:34PM 41.7525 -73.5950 North 334 384 13,000  Level Boston Center
08:35PM 41.8467 -73.5772 North 334 384 13,000 -120 Level Boston Center
08:36PM 41.9322 -73.5592 North 329 379 12,800 -720 Descending Boston Center
08:37PM 41.9906 -73.5461 North 301 346 11,900 -1,620 Descending Boston Center
08:37PM 42.0178 -73.5439 North 318 366 11,200 -660 Descending Boston Center
08:38PM 42.0908 -73.5311 North 317 365 11,100 -120 Descending Boston Center
08:39PM 42.1719 -73.5411 355° North 274 315 11,000 -600 Descending Boston Center
08:40PM 42.2342 -73.5869 331° Northwest 248 285 10,000 -1,440 Descending Boston Center
08:41PM 42.2942 -73.6272 334° Northwest 241 277 8,100 -1,980 Descending Boston Center
08:42PM 42.3522 -73.6622 336° Northwest 237 273 6,300 -1,800 Descending Boston Center
08:43PM 42.4058 -73.6969 334° Northwest 226 260 4,700 -1,440 Descending Boston Center
08:44PM 42.4536 -73.7317 332° Northwest 186 214 3,400 -1,020 Descending Boston Center
08:45PM 42.4928 -73.7606 331° Northwest 153 176 2,700 -420 Descending Boston Center
08:46PM 42.5342 -73.7869 335° Northwest 158 182 2,600 -60 Descending Boston Center
08:47PM 42.5778 -73.8019 346° North 171 197 2,600  Level Boston Center
08:48PM 42.6236 -73.8031 359° North 161 185 2,600  Level Boston Center